Time;durP1;ratioP1;P1;durP2;ratioP2;P2;SDS_P1;SDS_P2;PMS_P1;PMS_P2;Temp;Humidity;BMP_temperature;BMP_pressure;BME280_temperature;BME280_humidity;BME280_pressure;Samples;Min_cycle;Max_cycle;Signal;HPM_P1;HPM_P2
2023/10/07 00:01:52;;;;;;;4.10;2.63;;;;;;;;;;5055439;28;20045;-56
2023/10/07 00:04:18;;;;;;;9.10;2.92;;;;;;;;;;5057594;28;20131;-56
2023/10/07 00:06:45;;;;;;;6.50;2.70;;;;;;;;;;5056056;28;20319;-56
2023/10/07 00:09:15;;;;;;;6.40;2.25;;;;;;;;;;5059443;28;20036;-56
2023/10/07 00:11:46;;;;;;;6.50;1.90;;;;;;;;;;5058094;28;20048;-56
2023/10/07 00:14:14;;;;;;;5.15;2.63;;;;;;;;;;5060454;28;20044;-56
2023/10/07 00:16:43;;;;;;;4.30;2.10;;;;;;;;;;5058827;28;20124;-56
2023/10/07 00:19:09;;;;;;;6.78;2.90;;;;;;;;;;5061488;28;20044;-56
2023/10/07 00:24:20;;;;;;;6.28;3.10;;;;;;;;;;5056642;28;20076;-56
2023/10/07 00:26:47;;;;;;;6.15;2.60;;;;;;;;;;5062601;28;20090;-56
2023/10/07 00:29:13;;;;;;;7.53;3.17;;;;;;;;;;5054793;28;20048;-56
2023/10/07 00:31:40;;;;;;;6.75;2.78;;;;;;;;;;5049210;28;20045;-56
2023/10/07 00:34:19;;;;;;;6.47;2.90;;;;;;;;;;5048960;28;20068;-57
2023/10/07 00:36:47;;;;;;;7.68;2.83;;;;;;;;;;5051877;28;20119;-57
2023/10/07 00:39:20;;;;;;;7.30;3.28;;;;;;;;;;5055025;28;20049;-57
2023/10/07 00:41:47;;;;;;;5.75;2.80;;;;;;;;;;5056072;28;20094;-56
2023/10/07 00:44:20;;;;;;;6.05;2.38;;;;;;;;;;5060541;28;20037;-57
2023/10/07 00:47:08;;;;;;;3.47;2.03;;;;;;;;;;5057996;28;20052;-57
2023/10/07 00:49:54;;;;;;;6.38;2.53;;;;;;;;;;5057597;28;20684;-56
2023/10/07 00:52:40;;;;;;;4.72;2.60;;;;;;;;;;5055672;28;20044;-57
2023/10/07 00:55:09;;;;;;;5.32;2.30;;;;;;;;;;5054652;28;20991;-57
2023/10/07 00:57:37;;;;;;;4.07;2.15;;;;;;;;;;5054227;28;20045;-56
2023/10/07 01:00:12;;;;;;;3.97;2.17;;;;;;;;;;5052076;28;20084;-57
2023/10/07 01:02:39;;;;;;;6.53;2.08;;;;;;;;;;5051639;28;20036;-57
2023/10/07 01:05:09;;;;;;;3.25;2.33;;;;;;;;;;5058210;28;20867;-57
2023/10/07 01:07:35;;;;;;;3.13;1.77;;;;;;;;;;5056375;28;20045;-56
2023/10/07 01:12:37;;;;;;;4.35;1.90;;;;;;;;;;5053724;28;20139;-57
2023/10/07 01:15:17;;;;;;;5.18;2.08;;;;;;;;;;5055801;28;20210;-56
2023/10/07 01:17:45;;;;;;;3.00;1.88;;;;;;;;;;5052524;28;20045;-56
2023/10/07 01:20:13;;;;;;;2.85;1.63;;;;;;;;;;5054836;28;20703;-57
2023/10/07 01:22:44;;;;;;;3.38;2.00;;;;;;;;;;5052630;28;20397;-57
2023/10/07 01:25:17;;;;;;;5.82;1.55;;;;;;;;;;5058908;28;20077;-57
2023/10/07 01:27:50;;;;;;;2.50;1.55;;;;;;;;;;5055096;28;20059;-57
2023/10/07 01:30:16;;;;;;;3.80;1.75;;;;;;;;;;5056535;28;20094;-57
2023/10/07 01:32:48;;;;;;;2.83;1.40;;;;;;;;;;5058293;28;20141;-57
2023/10/07 01:35:25;;;;;;;3.38;1.85;;;;;;;;;;5057642;28;20258;-57
2023/10/07 01:37:51;;;;;;;5.00;2.08;;;;;;;;;;5070331;28;20044;-57
2023/10/07 01:40:18;;;;;;;4.63;2.30;;;;;;;;;;5055445;28;20052;-57
2023/10/07 01:42:44;;;;;;;4.15;2.22;;;;;;;;;;5052725;28;20045;-57
2023/10/07 01:45:20;;;;;;;3.58;2.03;;;;;;;;;;5057831;28;20138;-56
2023/10/07 01:47:47;;;;;;;3.40;1.88;;;;;;;;;;5052160;28;20037;-57
2023/10/07 01:50:14;;;;;;;5.03;1.85;;;;;;;;;;5056794;28;20771;-57
2023/10/07 01:52:42;;;;;;;3.30;1.85;;;;;;;;;;5054069;28;20053;-57
2023/10/07 01:55:09;;;;;;;2.38;1.92;;;;;;;;;;5047796;28;20657;-56
2023/10/07 01:57:35;;;;;;;6.57;2.40;;;;;;;;;;5055985;28;20040;-57
2023/10/07 02:00:06;;;;;;;6.72;2.65;;;;;;;;;;5055216;28;20055;-57
2023/10/07 02:02:32;;;;;;;4.75;2.20;;;;;;;;;;5057320;28;20044;-57
2023/10/07 02:04:59;;;;;;;2.63;1.65;;;;;;;;;;5057135;28;20044;-57
2023/10/07 02:07:27;;;;;;;3.60;1.58;;;;;;;;;;5056445;28;20079;-57
2023/10/07 02:09:54;;;;;;;2.97;1.85;;;;;;;;;;5053563;28;20044;-57
2023/10/07 02:12:20;;;;;;;6.50;2.22;;;;;;;;;;5051734;28;20052;-57
2023/10/07 02:14:46;;;;;;;7.53;2.80;;;;;;;;;;5054242;28;20041;-57
2023/10/07 02:17:14;;;;;;;8.18;2.75;;;;;;;;;;5055852;28;20045;-56
2023/10/07 02:19:41;;;;;;;4.18;1.50;;;;;;;;;;5053023;28;20041;-57
2023/10/07 02:22:08;;;;;;;4.57;2.33;;;;;;;;;;5053381;28;20044;-57
2023/10/07 02:24:34;;;;;;;4.95;2.00;;;;;;;;;;5056423;28;20037;-57
2023/10/07 02:27:05;;;;;;;4.25;2.40;;;;;;;;;;5063224;28;20086;-57
2023/10/07 02:29:32;;;;;;;3.83;1.92;;;;;;;;;;5056735;28;20052;-57
2023/10/07 02:32:13;;;;;;;3.38;1.70;;;;;;;;;;5059128;28;20045;-58
2023/10/07 02:34:51;;;;;;;4.97;2.05;;;;;;;;;;5055066;28;20140;-57
2023/10/07 02:37:21;;;;;;;4.75;1.60;;;;;;;;;;5053860;28;20539;-57
2023/10/07 02:39:48;;;;;;;5.35;1.60;;;;;;;;;;5052907;28;20083;-57
2023/10/07 02:42:21;;;;;;;6.47;2.63;;;;;;;;;;5051255;28;20044;-58
2023/10/07 02:44:48;;;;;;;5.72;2.22;;;;;;;;;;5055545;28;20059;-58
2023/10/07 02:47:17;;;;;;;5.00;2.00;;;;;;;;;;5055805;28;20519;-56
2023/10/07 02:49:49;;;;;;;2.08;1.50;;;;;;;;;;5058950;28;20044;-56
2023/10/07 02:52:16;;;;;;;3.53;1.65;;;;;;;;;;5052935;28;20040;-57
2023/10/07 02:54:43;;;;;;;2.78;1.88;;;;;;;;;;5053727;28;20093;-57
2023/10/07 02:57:21;;;;;;;5.43;1.75;;;;;;;;;;5055830;28;20044;-56
2023/10/07 02:59:50;;;;;;;3.72;1.65;;;;;;;;;;5053973;28;20048;-57
2023/10/07 03:04:44;;;;;;;4.30;2.30;;;;;;;;;;5051334;28;20044;-57
2023/10/07 03:07:14;;;;;;;5.47;2.53;;;;;;;;;;5052753;28;20056;-57
2023/10/07 03:09:54;;;;;;;3.72;1.90;;;;;;;;;;5068318;28;20078;-57
2023/10/07 03:12:30;;;;;;;4.55;1.80;;;;;;;;;;5052806;28;20107;-57
2023/10/07 03:15:05;;;;;;;2.45;1.30;;;;;;;;;;5051790;28;20124;-57
2023/10/07 03:17:39;;;;;;;3.85;1.60;;;;;;;;;;5049171;28;20047;-57
2023/10/07 03:26:05;;;;;;;2.80;1.80;;;;;;;;;;5056423;28;20040;-57
2023/10/07 03:28:21;;;;;;;7.80;2.28;;;;;;;;;;5054138;28;20464;-57
2023/10/07 03:30:51;;;;;;;5.43;2.30;;;;;;;;;;5053263;28;20041;-57
2023/10/07 03:33:23;;;;;;;5.65;1.70;;;;;;;;;;5056322;28;20048;-57
2023/10/07 03:38:25;;;;;;;2.70;1.58;;;;;;;;;;5052876;28;20068;-57
2023/10/07 03:40:54;;;;;;;4.80;1.83;;;;;;;;;;5051754;28;20037;-57
2023/10/07 03:43:20;;;;;;;4.95;1.77;;;;;;;;;;5052674;28;20052;-57
2023/10/07 03:45:46;;;;;;;4.20;1.55;;;;;;;;;;5054524;28;20098;-57
2023/10/07 03:48:34;;;;;;;2.60;1.42;;;;;;;;;;5055580;28;20040;-56
2023/10/07 03:51:06;;;;;;;4.05;1.38;;;;;;;;;;5050391;28;20044;-57
2023/10/07 03:53:44;;;;;;;4.03;1.63;;;;;;;;;;5054884;28;20123;-57
2023/10/07 03:56:11;;;;;;;4.80;1.88;;;;;;;;;;5049227;28;20696;-57
2023/10/07 03:58:37;;;;;;;4.70;1.98;;;;;;;;;;5050750;28;20056;-57
2023/10/07 04:01:18;;;;;;;3.35;1.92;;;;;;;;;;5051184;28;20052;-57
2023/10/07 04:03:46;;;;;;;5.70;2.17;;;;;;;;;;5048123;28;20049;-57
2023/10/07 04:06:13;;;;;;;3.35;1.73;;;;;;;;;;5049444;28;20048;-57
2023/10/07 04:08:40;;;;;;;3.83;1.52;;;;;;;;;;5054561;28;20120;-56
2023/10/07 04:11:13;;;;;;;4.75;1.67;;;;;;;;;;5053650;28;20045;-57
2023/10/07 04:13:40;;;;;;;3.28;1.40;;;;;;;;;;5049610;28;20045;-57
2023/10/07 04:16:22;;;;;;;5.05;1.90;;;;;;;;;;5051641;28;20462;-57
2023/10/07 04:18:49;;;;;;;6.18;2.38;;;;;;;;;;5054725;28;20032;-56
2023/10/07 04:21:15;;;;;;;6.95;2.45;;;;;;;;;;5053657;28;20033;-56
2023/10/07 04:23:44;;;;;;;7.38;2.72;;;;;;;;;;5051238;28;20044;-57
2023/10/07 04:26:11;;;;;;;2.95;1.90;;;;;;;;;;5055763;28;20056;-57
2023/10/07 04:28:41;;;;;;;4.40;1.90;;;;;;;;;;5053920;28;20044;-57
2023/10/07 04:31:10;;;;;;;6.95;2.10;;;;;;;;;;5055258;28;20037;-57
2023/10/07 04:33:40;;;;;;;10.68;2.75;;;;;;;;;;5047613;28;20036;-57
2023/10/07 04:36:14;;;;;;;6.18;2.75;;;;;;;;;;5053520;28;20068;-57
2023/10/07 04:41:30;;;;;;;2.33;2.00;;;;;;;;;;5049308;28;20044;-57
2023/10/07 04:43:59;;;;;;;4.72;2.35;;;;;;;;;;5050599;28;20540;-57
2023/10/07 04:46:29;;;;;;;3.80;1.52;;;;;;;;;;5052265;28;20078;-57
2023/10/07 04:48:56;;;;;;;3.70;1.40;;;;;;;;;;5056210;28;20098;-57
2023/10/07 04:53:57;;;;;;;4.25;1.50;;;;;;;;;;5050530;28;20132;-57
2023/10/07 04:56:25;;;;;;;5.68;1.83;;;;;;;;;;5051784;28;21261;-57
2023/10/07 04:58:55;;;;;;;4.60;1.90;;;;;;;;;;5056052;28;20079;-56
2023/10/07 05:02:10;;;;;;;6.00;2.45;;;;;;;;;;5053975;28;20064;-56
2023/10/07 05:04:13;;;;;;;3.38;1.85;;;;;;;;;;5045933;28;20056;-57
2023/10/07 05:06:42;;;;;;;6.90;1.88;;;;;;;;;;5046139;28;20044;-57
2023/10/07 05:09:18;;;;;;;4.63;2.03;;;;;;;;;;5051314;28;20040;-57
2023/10/07 05:11:46;;;;;;;7.85;2.80;;;;;;;;;;5048087;28;20041;-57
2023/10/07 05:14:17;;;;;;;5.32;2.08;;;;;;;;;;5048823;28;20048;-57
2023/10/07 05:16:46;;;;;;;5.60;2.33;;;;;;;;;;5053907;28;20040;-56
2023/10/07 05:19:19;;;;;;;5.35;1.98;;;;;;;;;;5058331;28;20037;-56
2023/10/07 05:21:46;;;;;;;9.07;3.17;;;;;;;;;;5055100;28;20041;-56
2023/10/07 05:24:12;;;;;;;5.18;2.30;;;;;;;;;;5056608;28;20044;-57
2023/10/07 05:26:40;;;;;;;5.07;2.30;;;;;;;;;;5050779;28;20814;-56
2023/10/07 05:29:07;;;;;;;5.95;2.60;;;;;;;;;;5055902;28;20056;-56
2023/10/07 05:31:34;;;;;;;2.75;1.70;;;;;;;;;;5059146;28;20040;-56
2023/10/07 05:34:00;;;;;;;4.95;2.05;;;;;;;;;;5055128;28;20105;-56
2023/10/07 05:36:30;;;;;;;5.68;1.75;;;;;;;;;;5053739;28;20118;-57
2023/10/07 05:38:56;;;;;;;5.50;2.00;;;;;;;;;;5052772;28;20281;-57
2023/10/07 05:41:28;;;;;;;8.02;2.60;;;;;;;;;;5054829;28;20473;-57
2023/10/07 05:43:54;;;;;;;5.82;2.42;;;;;;;;;;5051475;28;20557;-57
2023/10/07 05:46:20;;;;;;;4.18;2.08;;;;;;;;;;5056775;28;20037;-56
2023/10/07 05:48:51;;;;;;;6.07;2.35;;;;;;;;;;5053800;28;20048;-57
2023/10/07 05:51:17;;;;;;;6.90;2.15;;;;;;;;;;5057712;28;20111;-56
2023/10/07 05:53:45;;;;;;;4.65;2.33;;;;;;;;;;5054914;28;20072;-57
2023/10/07 05:56:11;;;;;;;5.03;2.03;;;;;;;;;;5059697;28;20668;-57
2023/10/07 05:58:38;;;;;;;3.58;2.00;;;;;;;;;;5053602;28;20052;-56
2023/10/07 06:01:04;;;;;;;4.47;1.88;;;;;;;;;;5051425;28;20384;-58
2023/10/07 06:03:30;;;;;;;3.42;1.55;;;;;;;;;;5056313;28;20099;-57
2023/10/07 06:05:57;;;;;;;3.88;1.63;;;;;;;;;;5057333;28;20052;-56
2023/10/07 06:08:26;;;;;;;6.72;2.00;;;;;;;;;;5055086;28;20086;-56
2023/10/07 06:10:56;;;;;;;2.03;1.27;;;;;;;;;;5061019;28;20063;-57
2023/10/07 06:13:29;;;;;;;5.18;2.30;;;;;;;;;;5053923;28;20095;-57
2023/10/07 06:15:59;;;;;;;5.32;2.35;;;;;;;;;;5051735;28;20040;-57
2023/10/07 06:18:25;;;;;;;5.57;2.13;;;;;;;;;;5047819;28;20075;-57
2023/10/07 06:20:52;;;;;;;6.43;2.83;;;;;;;;;;5050053;28;20033;-57
2023/10/07 06:23:19;;;;;;;6.32;2.60;;;;;;;;;;5056929;28;20045;-57
2023/10/07 06:25:49;;;;;;;4.35;2.08;;;;;;;;;;5049531;28;20043;-57
2023/10/07 06:31:48;;;;;;;6.53;2.00;;;;;;;;;;5054236;28;20509;-57
2023/10/07 06:34:09;;;;;;;5.32;2.70;;;;;;;;;;5044601;28;20045;-56
2023/10/07 06:36:37;;;;;;;5.95;2.78;;;;;;;;;;5051788;28;20752;-57
2023/10/07 06:39:07;;;;;;;4.72;2.20;;;;;;;;;;5053874;28;20044;-57
2023/10/07 06:41:34;;;;;;;4.10;1.90;;;;;;;;;;5055612;28;20094;-56
2023/10/07 06:44:02;;;;;;;4.55;2.25;;;;;;;;;;5049473;28;20051;-56
2023/10/07 06:46:29;;;;;;;4.18;2.53;;;;;;;;;;5055011;28;20119;-56
2023/10/07 06:48:55;;;;;;;6.03;2.83;;;;;;;;;;5053658;28;20036;-57
2023/10/07 06:51:23;;;;;;;6.47;2.80;;;;;;;;;;5056399;28;20036;-57
2023/10/07 06:53:49;;;;;;;5.72;2.83;;;;;;;;;;5057493;28;20044;-56
2023/10/07 06:56:22;;;;;;;8.82;3.15;;;;;;;;;;5051250;28;20060;-57
2023/10/07 06:58:59;;;;;;;8.48;2.70;;;;;;;;;;5052462;28;20033;-57
2023/10/07 07:01:49;;;;;;;6.28;2.67;;;;;;;;;;5052696;28;20051;-57
2023/10/07 07:04:18;;;;;;;3.97;1.83;;;;;;;;;;5052982;28;20049;-56
2023/10/07 07:06:46;;;;;;;14.25;2.88;;;;;;;;;;5054724;28;20045;-57
2023/10/07 07:12:04;;;;;;;5.43;2.20;;;;;;;;;;5051298;28;20048;-57
2023/10/07 07:14:33;;;;;;;4.53;1.83;;;;;;;;;;5048283;28;20080;-57
2023/10/07 07:20:06;;;;;;;5.00;2.17;;;;;;;;;;5052372;28;20049;-57
2023/10/07 07:22:33;;;;;;;5.32;2.38;;;;;;;;;;5053069;28;20685;-57
2023/10/07 07:25:04;;;;;;;3.78;2.20;;;;;;;;;;5048703;28;20097;-57
2023/10/07 07:27:33;;;;;;;4.25;2.10;;;;;;;;;;5056129;28;20558;-57
2023/10/07 07:30:03;;;;;;;4.43;2.40;;;;;;;;;;5051781;28;20488;-56
2023/10/07 07:32:33;;;;;;;4.03;1.85;;;;;;;;;;5050207;28;20032;-57
2023/10/07 07:35:02;;;;;;;7.47;2.50;;;;;;;;;;5055975;28;20045;-57
2023/10/07 07:37:31;;;;;;;5.18;2.40;;;;;;;;;;5047494;28;20130;-56
2023/10/07 07:40:09;;;;;;;4.57;2.55;;;;;;;;;;5048490;28;20041;-57
2023/10/07 07:42:35;;;;;;;8.15;2.90;;;;;;;;;;5050239;28;20086;-57
2023/10/07 07:45:01;;;;;;;7.95;2.88;;;;;;;;;;5055411;28;20054;-57
2023/10/07 07:47:31;;;;;;;5.10;2.47;;;;;;;;;;5057096;28;20040;-57
2023/10/07 07:50:08;;;;;;;4.85;2.20;;;;;;;;;;5053816;28;20044;-57
2023/10/07 07:52:34;;;;;;;4.60;2.15;;;;;;;;;;5050857;28;20071;-57
2023/10/07 07:55:00;;;;;;;5.88;2.25;;;;;;;;;;5050938;28;20083;-57
2023/10/07 07:57:27;;;;;;;3.47;1.95;;;;;;;;;;5046471;28;20470;-60
2023/10/07 07:59:53;;;;;;;5.10;2.22;;;;;;;;;;5072230;28;20561;-58
2023/10/07 08:02:24;;;;;;;6.10;2.38;;;;;;;;;;5051564;28;20087;-58
2023/10/07 08:04:50;;;;;;;4.95;2.58;;;;;;;;;;5054057;28;20720;-57
2023/10/07 08:09:51;;;;;;;7.35;2.65;;;;;;;;;;5045750;28;20063;-55
2023/10/07 08:15:23;;;;;;;5.55;2.42;;;;;;;;;;5033089;28;20080;-56
2023/10/07 08:17:51;;;;;;;5.40;1.92;;;;;;;;;;5045547;28;20036;-56
2023/10/07 08:20:27;;;;;;;3.92;1.85;;;;;;;;;;5045160;28;20051;-56
2023/10/07 08:22:54;;;;;;;3.65;2.33;;;;;;;;;;5045748;28;20102;-56
2023/10/07 08:25:37;;;;;;;4.90;2.10;;;;;;;;;;5045412;28;20120;-56
2023/10/07 08:30:48;;;;;;;6.57;2.95;;;;;;;;;;5036592;28;20735;-57
2023/10/07 08:33:15;;;;;;;4.35;2.25;;;;;;;;;;5044778;28;20044;-56
2023/10/07 08:35:44;;;;;;;9.40;3.78;;;;;;;;;;5042961;28;20403;-56
2023/10/07 08:38:37;;;;;;;5.75;3.05;;;;;;;;;;5044599;28;20060;-56
2023/10/07 08:41:04;;;;;;;6.60;2.75;;;;;;;;;;5037753;28;20114;-56
2023/10/07 08:43:37;;;;;;;4.97;2.55;;;;;;;;;;5046078;28;20106;-56
2023/10/07 08:46:08;;;;;;;4.38;2.70;;;;;;;;;;5037927;28;20632;-57
2023/10/07 08:48:38;;;;;;;5.35;2.10;;;;;;;;;;5046872;28;20116;-57
2023/10/07 08:51:10;;;;;;;4.72;2.17;;;;;;;;;;5041286;28;20040;-56
2023/10/07 08:53:37;;;;;;;5.13;2.38;;;;;;;;;;5049455;28;20540;-57
2023/10/07 08:56:09;;;;;;;5.32;2.63;;;;;;;;;;5048760;28;20133;-56
2023/10/07 08:58:39;;;;;;;6.97;3.03;;;;;;;;;;5049685;28;20119;-56
2023/10/07 09:01:07;;;;;;;4.55;2.55;;;;;;;;;;5048688;28;20041;-56
2023/10/07 09:03:39;;;;;;;5.22;2.22;;;;;;;;;;5042364;28;20056;-57
2023/10/07 09:06:08;;;;;;;;;;;;;;;;;;5049560;28;20056;-57
2023/10/07 09:08:35;;;;;;;10.05;3.30;;;;;;;;;;5051169;28;20294;-57
2023/10/07 09:11:05;;;;;;;6.32;3.13;;;;;;;;;;5056413;28;20102;-57
2023/10/07 09:13:33;;;;;;;13.48;3.58;;;;;;;;;;5053751;28;20037;-57
2023/10/07 09:15:59;;;;;;;9.38;3.92;;;;;;;;;;5046677;28;20087;-58
2023/10/07 09:18:31;;;;;;;6.70;3.47;;;;;;;;;;5052220;28;20037;-57
2023/10/07 09:21:03;;;;;;;7.25;2.92;;;;;;;;;;5049135;28;20978;-56
2023/10/07 09:23:42;;;;;;;3.88;2.30;;;;;;;;;;5040935;28;20382;-56
2023/10/07 09:26:21;;;;;;;5.85;2.53;;;;;;;;;;5049319;28;20079;-56
2023/10/07 09:29:08;;;;;;;4.50;2.95;;;;;;;;;;5040986;28;20037;-57
2023/10/07 09:31:35;;;;;;;12.68;4.05;;;;;;;;;;5044849;28;20072;-56
2023/10/07 09:34:09;;;;;;;7.97;3.90;;;;;;;;;;5047646;28;20119;-57
2023/10/07 09:36:40;;;;;;;13.43;3.60;;;;;;;;;;5044733;28;20069;-56
2023/10/07 09:41:39;;;;;;;5.38;2.53;;;;;;;;;;5045753;28;20044;-56
2023/10/07 09:44:19;;;;;;;5.80;2.45;;;;;;;;;;5042644;28;20519;-56
2023/10/07 09:46:46;;;;;;;6.82;3.05;;;;;;;;;;5046111;28;20044;-56
2023/10/07 09:49:15;;;;;;;7.78;2.65;;;;;;;;;;5039358;28;20044;-57
2023/10/07 09:51:47;;;;;;;5.50;3.42;;;;;;;;;;5045215;28;20065;-57
2023/10/07 09:54:22;;;;;;;4.82;2.50;;;;;;;;;;5036723;28;20045;-57
2023/10/07 09:57:14;;;;;;;8.23;3.50;;;;;;;;;;5038552;28;20053;-56
2023/10/07 09:59:43;;;;;;;5.40;3.15;;;;;;;;;;5038588;28;20382;-57
2023/10/07 10:02:31;;;;;;;7.57;2.67;;;;;;;;;;5043515;28;20036;-56
2023/10/07 10:05:11;;;;;;;6.82;3.03;;;;;;;;;;5044612;28;20057;-57
2023/10/07 10:07:56;;;;;;;7.07;3.50;;;;;;;;;;5050807;28;20050;-57
2023/10/07 10:10:31;;;;;;;9.13;3.20;;;;;;;;;;5038152;28;20485;-57
2023/10/07 10:18:05;;;;;;;9.82;3.40;;;;;;;;;;5035439;28;20045;-57
2023/10/07 10:20:43;;;;;;;6.97;3.10;;;;;;;;;;5038232;28;20044;-58
2023/10/07 10:23:21;;;;;;;7.47;3.15;;;;;;;;;;5044379;28;20143;-56
2023/10/07 10:25:51;;;;;;;8.18;3.70;;;;;;;;;;5039651;28;20512;-57
2023/10/07 10:28:27;;;;;;;4.70;2.15;;;;;;;;;;5040965;28;20544;-57
2023/10/07 10:30:55;;;;;;;5.03;2.88;;;;;;;;;;5044558;28;20147;-57
2023/10/07 10:33:23;;;;;;;3.90;2.70;;;;;;;;;;5044415;28;20056;-57
2023/10/07 10:35:57;;;;;;;4.68;2.70;;;;;;;;;;5042316;28;20043;-57
2023/10/07 10:38:23;;;;;;;5.90;2.78;;;;;;;;;;5041130;28;20045;-57
2023/10/07 10:40:49;;;;;;;5.35;3.13;;;;;;;;;;5045666;28;20049;-57
2023/10/07 10:43:24;;;;;;;3.53;2.40;;;;;;;;;;5047448;28;20048;-57
2023/10/07 10:46:06;;;;;;;4.63;2.60;;;;;;;;;;5046246;28;20029;-57
2023/10/07 10:48:33;;;;;;;8.30;3.35;;;;;;;;;;5042215;28;20044;-57
2023/10/07 10:50:59;;;;;;;9.10;3.92;;;;;;;;;;5041248;28;20041;-57
2023/10/07 10:53:27;;;;;;;8.68;3.72;;;;;;;;;;5035762;28;20041;-57
2023/10/07 10:55:54;;;;;;;4.82;2.95;;;;;;;;;;5044638;28;20053;-56
2023/10/07 10:58:21;;;;;;;6.95;2.80;;;;;;;;;;5044222;28;20076;-57
2023/10/07 11:00:49;;;;;;;4.60;2.63;;;;;;;;;;5045762;28;20497;-57
2023/10/07 11:03:20;;;;;;;4.85;3.15;;;;;;;;;;5043637;28;20044;-57
2023/10/07 11:05:46;;;;;;;5.15;2.55;;;;;;;;;;5037288;28;20041;-57
2023/10/07 11:08:12;;;;;;;8.65;3.38;;;;;;;;;;5036098;28;20045;-57
2023/10/07 11:10:39;;;;;;;4.68;2.80;;;;;;;;;;5040900;28;20053;-57
2023/10/07 11:13:08;;;;;;;4.63;2.97;;;;;;;;;;5041913;28;20095;-57
2023/10/07 11:15:35;;;;;;;5.75;2.97;;;;;;;;;;5041930;28;20036;-57
2023/10/07 11:18:12;;;;;;;5.05;2.65;;;;;;;;;;5039317;28;20065;-57
2023/10/07 11:20:41;;;;;;;7.65;3.83;;;;;;;;;;5042302;28;20037;-57
2023/10/07 11:23:08;;;;;;;7.68;3.40;;;;;;;;;;5043345;28;20045;-57
2023/10/07 11:25:35;;;;;;;7.65;4.40;;;;;;;;;;5044890;28;20489;-57
2023/10/07 11:28:11;;;;;;;8.80;3.47;;;;;;;;;;5040976;28;20055;-57
2023/10/07 11:30:44;;;;;;;7.40;3.78;;;;;;;;;;5040638;28;20053;-57
2023/10/07 11:33:16;;;;;;;8.50;3.40;;;;;;;;;;5040223;28;20056;-57
2023/10/07 11:35:43;;;;;;;5.80;3.00;;;;;;;;;;5041750;28;20356;-57
2023/10/07 11:38:13;;;;;;;4.88;2.78;;;;;;;;;;5041451;28;20060;-56
2023/10/07 11:40:39;;;;;;;5.18;2.85;;;;;;;;;;5045615;28;20037;-57
2023/10/07 11:43:08;;;;;;;7.30;3.08;;;;;;;;;;5040539;28;20091;-57
2023/10/07 11:45:35;;;;;;;6.40;2.90;;;;;;;;;;5041359;28;20095;-57
2023/10/07 11:48:03;;;;;;;6.40;3.22;;;;;;;;;;5043842;28;20127;-57
2023/10/07 11:50:34;;;;;;;8.48;3.30;;;;;;;;;;5048311;28;20033;-56
2023/10/07 11:53:00;;;;;;;7.13;3.40;;;;;;;;;;5038521;28;20715;-57
2023/10/07 11:55:27;;;;;;;5.40;2.95;;;;;;;;;;5047081;28;20053;-57
2023/10/07 11:57:54;;;;;;;5.82;3.22;;;;;;;;;;5043365;28;20071;-57
2023/10/07 12:00:23;;;;;;;11.60;3.22;;;;;;;;;;5044820;28;20049;-57
2023/10/07 12:02:50;;;;;;;10.02;3.95;;;;;;;;;;5056418;28;20412;-57
2023/10/07 12:05:17;;;;;;;5.68;3.20;;;;;;;;;;5046174;28;20873;-57
2023/10/07 12:07:47;;;;;;;8.35;3.15;;;;;;;;;;5047149;28;20051;-57
2023/10/07 12:10:15;;;;;;;4.50;2.78;;;;;;;;;;5047824;28;20075;-56
2023/10/07 12:12:45;;;;;;;3.53;2.17;;;;;;;;;;5047908;28;20069;-57
2023/10/07 12:15:18;;;;;;;4.45;2.60;;;;;;;;;;5051026;28;20602;-56
2023/10/07 12:17:49;;;;;;;5.82;2.75;;;;;;;;;;5050147;28;20974;-55
2023/10/07 12:20:20;;;;;;;7.32;3.35;;;;;;;;;;5050547;28;20172;-57
2023/10/07 12:22:46;;;;;;;5.53;3.20;;;;;;;;;;5052846;28;20060;-57
2023/10/07 12:25:16;;;;;;;4.25;2.63;;;;;;;;;;5053153;28;20041;-56
2023/10/07 12:27:45;;;;;;;5.90;2.47;;;;;;;;;;5047966;28;20039;-57
2023/10/07 12:30:14;;;;;;;7.28;3.90;;;;;;;;;;5050492;28;20040;-57
2023/10/07 12:32:40;;;;;;;5.10;2.75;;;;;;;;;;5053420;28;20048;-57
2023/10/07 12:35:09;;;;;;;4.95;2.88;;;;;;;;;;5051694;28;20118;-57
2023/10/07 12:37:38;;;;;;;5.20;2.85;;;;;;;;;;5050952;28;20041;-56
2023/10/07 12:40:05;;;;;;;7.22;2.42;;;;;;;;;;5049943;28;20056;-56
2023/10/07 12:42:32;;;;;;;5.15;2.80;;;;;;;;;;5045690;28;20083;-57
2023/10/07 12:45:01;;;;;;;6.70;3.42;;;;;;;;;;5055545;28;20057;-57
2023/10/07 12:47:29;;;;;;;3.03;2.55;;;;;;;;;;5049291;28;20048;-57
2023/10/07 12:49:55;;;;;;;5.22;2.90;;;;;;;;;;5049716;28;20045;-57
2023/10/07 12:52:24;;;;;;;7.38;3.20;;;;;;;;;;5050081;28;20065;-57
2023/10/07 12:54:50;;;;;;;4.03;2.78;;;;;;;;;;5046470;28;20120;-57
2023/10/07 12:57:16;;;;;;;7.18;3.03;;;;;;;;;;5046658;28;20056;-56
2023/10/07 12:59:44;;;;;;;6.95;2.97;;;;;;;;;;5051934;28;20040;-57
2023/10/07 13:02:17;;;;;;;12.45;3.40;;;;;;;;;;5044755;28;20118;-57
2023/10/07 13:04:44;;;;;;;4.10;2.72;;;;;;;;;;5050575;28;20044;-57
2023/10/07 13:07:10;;;;;;;5.22;3.03;;;;;;;;;;5046288;28;20072;-58
2023/10/07 13:09:40;;;;;;;4.65;3.05;;;;;;;;;;5046685;28;20040;-57
2023/10/07 13:12:15;;;;;;;4.93;2.90;;;;;;;;;;5048290;28;20037;-57
2023/10/07 13:14:41;;;;;;;5.30;2.85;;;;;;;;;;5046013;28;20037;-57
2023/10/07 13:17:10;;;;;;;5.50;3.47;;;;;;;;;;5046087;28;20044;-57
2023/10/07 13:19:43;;;;;;;10.32;3.60;;;;;;;;;;5045331;28;20059;-56
2023/10/07 13:22:09;;;;;;;5.80;2.55;;;;;;;;;;5044183;28;20052;-57
2023/10/07 13:24:35;;;;;;;4.95;2.40;;;;;;;;;;5043730;28;20033;-57
2023/10/07 13:27:02;;;;;;;4.63;2.60;;;;;;;;;;5045452;28;20384;-57
2023/10/07 13:29:28;;;;;;;4.72;2.65;;;;;;;;;;5045938;28;20107;-57
2023/10/07 13:31:54;;;;;;;2.97;2.05;;;;;;;;;;5045918;28;20462;-56
2023/10/07 13:34:21;;;;;;;3.28;2.13;;;;;;;;;;5045439;28;20037;-57
2023/10/07 13:36:48;;;;;;;3.50;2.30;;;;;;;;;;5046204;28;20270;-57
2023/10/07 13:39:17;;;;;;;4.13;2.45;;;;;;;;;;5050170;28;20052;-57
2023/10/07 13:41:47;;;;;;;3.60;2.08;;;;;;;;;;5045760;28;20116;-57
2023/10/07 13:44:14;;;;;;;4.63;2.13;;;;;;;;;;5042820;28;20115;-56
2023/10/07 13:46:40;;;;;;;2.95;1.58;;;;;;;;;;5046565;28;20074;-57
2023/10/07 13:49:09;;;;;;;3.40;2.20;;;;;;;;;;5050502;28;20048;-57
2023/10/07 13:51:43;;;;;;;2.45;1.60;;;;;;;;;;5049287;28;20551;-57
2023/10/07 13:54:22;;;;;;;2.13;1.67;;;;;;;;;;5048226;28;20049;-57
2023/10/07 13:56:53;;;;;;;4.10;2.25;;;;;;;;;;5051666;28;20048;-57
2023/10/07 13:59:19;;;;;;;3.00;1.95;;;;;;;;;;5046275;28;20033;-57
2023/10/07 14:01:46;;;;;;;4.85;2.90;;;;;;;;;;5047872;28;20072;-58
2023/10/07 14:04:15;;;;;;;3.63;2.45;;;;;;;;;;5049234;28;20136;-57
2023/10/07 14:06:42;;;;;;;2.60;1.85;;;;;;;;;;5049197;28;20043;-57
2023/10/07 14:09:15;;;;;;;4.63;2.08;;;;;;;;;;5046659;28;20048;-57
2023/10/07 14:11:41;;;;;;;6.70;2.80;;;;;;;;;;5047740;28;20052;-56
2023/10/07 14:14:07;;;;;;;6.18;3.05;;;;;;;;;;5047834;28;20056;-57
2023/10/07 14:16:34;;;;;;;5.75;2.90;;;;;;;;;;5047964;28;20749;-58
2023/10/07 14:19:00;;;;;;;9.80;3.95;;;;;;;;;;5046676;28;20041;-58
2023/10/07 14:21:26;;;;;;;6.25;3.28;;;;;;;;;;5046611;28;20052;-56
2023/10/07 14:23:52;;;;;;;4.38;2.83;;;;;;;;;;5047412;28;20459;-57
2023/10/07 14:26:19;;;;;;;6.15;2.88;;;;;;;;;;5048160;28;20801;-57
2023/10/07 14:28:45;;;;;;;5.00;2.95;;;;;;;;;;5047049;28;20084;-57
2023/10/07 14:31:12;;;;;;;3.65;2.70;;;;;;;;;;5044728;28;20071;-58
2023/10/07 14:33:38;;;;;;;4.30;2.53;;;;;;;;;;5048436;28;20076;-57
2023/10/07 14:36:09;;;;;;;7.63;3.38;;;;;;;;;;5048268;28;20049;-57
2023/10/07 14:38:37;;;;;;;7.32;3.15;;;;;;;;;;5043860;28;21492;-57
2023/10/07 14:41:03;;;;;;;9.73;3.72;;;;;;;;;;5042691;28;20071;-57
2023/10/07 14:43:29;;;;;;;7.90;3.55;;;;;;;;;;5043325;28;20033;-57
2023/10/07 14:45:56;;;;;;;11.25;3.90;;;;;;;;;;5040795;28;20114;-57
2023/10/07 14:48:22;;;;;;;8.52;3.85;;;;;;;;;;5031468;28;20045;-57
2023/10/07 14:50:48;;;;;;;10.90;4.07;;;;;;;;;;5043356;28;20505;-56
2023/10/07 14:53:14;;;;;;;6.03;3.60;;;;;;;;;;5044925;28;20064;-56
2023/10/07 14:55:44;;;;;;;7.10;3.53;;;;;;;;;;5037112;28;20398;-57
2023/10/07 14:58:12;;;;;;;6.22;3.05;;;;;;;;;;5044084;28;20053;-57
2023/10/07 15:00:41;;;;;;;6.57;2.65;;;;;;;;;;5042689;28;20076;-57
2023/10/07 15:03:09;;;;;;;7.65;3.88;;;;;;;;;;5032218;28;20079;-57
2023/10/07 15:05:37;;;;;;;6.38;3.53;;;;;;;;;;5036222;28;20041;-57
2023/10/07 15:08:03;;;;;;;6.38;3.72;;;;;;;;;;5034172;28;20037;-57
2023/10/07 15:10:29;;;;;;;4.57;2.67;;;;;;;;;;5037088;28;20584;-57
2023/10/07 15:12:56;;;;;;;4.43;2.83;;;;;;;;;;5044583;28;20362;-57
2023/10/07 15:15:22;;;;;;;5.80;2.00;;;;;;;;;;5043241;28;20048;-56
2023/10/07 15:17:49;;;;;;;4.97;3.47;;;;;;;;;;5045344;28;20040;-57
2023/10/07 15:20:15;;;;;;;7.30;3.33;;;;;;;;;;5041389;28;20332;-57
2023/10/07 15:22:42;;;;;;;4.68;2.78;;;;;;;;;;5037520;28;20033;-57
2023/10/07 15:25:09;;;;;;;4.85;2.88;;;;;;;;;;5039147;28;20136;-57
2023/10/07 15:27:35;;;;;;;4.90;2.63;;;;;;;;;;5040685;28;20044;-57
2023/10/07 15:30:03;;;;;;;5.32;2.58;;;;;;;;;;5039169;28;20135;-57
2023/10/07 15:32:29;;;;;;;6.82;3.20;;;;;;;;;;5040757;28;20042;-57
2023/10/07 15:34:59;;;;;;;4.22;2.97;;;;;;;;;;5040480;28;20608;-57
2023/10/07 15:37:26;;;;;;;7.55;3.90;;;;;;;;;;5034618;28;20041;-57
2023/10/07 15:39:53;;;;;;;4.68;3.13;;;;;;;;;;5037922;28;20769;-57
2023/10/07 15:42:20;;;;;;;7.90;3.45;;;;;;;;;;5038484;28;20048;-56
2023/10/07 15:44:46;;;;;;;7.75;3.72;;;;;;;;;;5037153;28;20041;-57